createdAt,value
2023-04-14T00:00:39.894Z,99700.33
2023-04-14T00:03:22.688Z,99697.30
2023-04-14T00:05:54.647Z,99692.02
2023-04-14T00:08:26.386Z,99693.58
2023-04-14T00:10:58.191Z,99691.12
2023-04-14T00:13:31.527Z,99687.31
2023-04-14T00:16:03.481Z,99686.44
2023-04-14T00:18:35.281Z,99682.27
2023-04-14T00:21:07.301Z,99687.18
2023-04-14T00:23:39.062Z,99685.25
2023-04-14T00:26:11.189Z,99681.34
2023-04-14T00:28:43.413Z,99675.11
2023-04-14T00:31:15.760Z,99672.05
2023-04-14T00:33:47.568Z,99669.31
2023-04-14T00:36:19.296Z,99669.37
2023-04-14T00:38:51.020Z,99669.56
2023-04-14T00:41:24.867Z,99669.80
2023-04-14T00:43:59.033Z,99664.76
2023-04-14T00:46:31.338Z,99669.59
2023-04-14T00:49:03.500Z,99672.60
2023-04-14T00:51:36.996Z,99670.40
2023-04-14T00:54:10.637Z,99671.48
2023-04-14T00:56:42.810Z,99671.48
2023-04-14T00:59:15.678Z,99671.30
2023-04-14T01:01:47.587Z,99668.40
2023-04-14T01:04:21.071Z,99669.92
2023-04-14T01:06:54.181Z,99673.77
2023-04-14T01:09:26.301Z,99672.95
2023-04-14T01:12:14.807Z,99673.15
2023-04-14T01:14:53.328Z,99671.45
2023-04-14T01:17:33.879Z,99672.45
2023-04-14T01:20:14.529Z,99670.23
2023-04-14T01:22:51.874Z,99672.46
2023-04-14T01:25:50.336Z,99667.83
2023-04-14T01:28:43.950Z,99666.57
2023-04-14T01:31:25.044Z,99665.27
2023-04-14T01:34:04.846Z,99665.07
2023-04-14T01:36:42.394Z,99657.78
2023-04-14T01:39:19.868Z,99665.53
2023-04-14T01:41:56.617Z,99669.54
2023-04-14T01:44:30.647Z,99669.00
2023-04-14T01:47:05.514Z,99667.37
2023-04-14T01:49:40.285Z,99661.66
2023-04-14T01:52:14.327Z,99661.63
2023-04-14T01:54:48.735Z,99659.85
2023-04-14T01:57:22.950Z,99661.42
2023-04-14T01:59:57.986Z,99656.17
2023-04-14T02:02:30.527Z,99656.23
2023-04-14T02:05:04.236Z,99652.32
2023-04-14T02:07:37.691Z,99648.00
2023-04-14T02:10:13.102Z,99642.90
2023-04-14T02:12:51.508Z,99650.38
2023-04-14T02:15:25.829Z,99652.79
2023-04-14T02:17:58.877Z,99657.02
2023-04-14T02:20:31.283Z,99656.57
2023-04-14T02:23:03.243Z,99654.95
2023-04-14T02:25:38.259Z,99650.98
2023-04-14T02:28:17.010Z,99648.02
2023-04-14T02:30:54.497Z,99647.96
2023-04-14T02:33:30.736Z,99651.26
2023-04-14T02:36:07.328Z,99656.11
2023-04-14T02:38:46.658Z,99653.23
2023-04-14T02:41:24.547Z,99653.25
2023-04-14T02:44:06.314Z,99648.34
2023-04-14T02:46:43.177Z,99643.54
2023-04-14T02:49:17.457Z,99641.33
2023-04-14T02:51:51.359Z,99639.71
2023-04-14T02:54:24.412Z,99636.90
2023-04-14T02:56:56.869Z,99638.88
2023-04-14T02:59:30.426Z,99637.66
2023-04-14T03:02:06.778Z,99640.52
2023-04-14T03:04:42.267Z,99642.80
2023-04-14T03:07:22.726Z,99640.23
2023-04-14T03:09:55.788Z,99638.21
2023-04-14T03:12:29.302Z,99637.05
2023-04-14T03:15:03.212Z,99641.77
2023-04-14T03:17:37.114Z,99636.36
2023-04-14T03:20:13.042Z,99643.03
2023-04-14T03:22:47.190Z,99649.73
2023-04-14T03:25:19.383Z,99658.41
2023-04-14T03:27:55.354Z,99659.55
2023-04-14T03:30:30.547Z,99653.77
2023-04-14T03:33:10.604Z,99646.35
2023-04-14T03:35:43.541Z,99641.13
2023-04-14T03:38:17.771Z,99639.58
2023-04-14T03:40:51.420Z,99636.65
2023-04-14T03:43:27.335Z,99637.57
2023-04-14T03:46:06.263Z,99636.41
2023-04-14T03:48:42.543Z,99634.02
2023-04-14T03:51:17.391Z,99632.95
2023-04-14T03:53:51.937Z,99634.23
2023-04-14T03:56:25.647Z,99636.48
2023-04-14T03:58:59.044Z,99631.23
2023-04-14T04:01:32.346Z,99627.77
2023-04-14T04:04:06.961Z,99630.15
2023-04-14T04:06:40.875Z,99632.96
2023-04-14T04:09:15.851Z,99629.54
2023-04-14T04:11:50.500Z,99634.08
2023-04-14T04:14:24.672Z,99629.02
2023-04-14T04:17:00.537Z,99634.01
2023-04-14T04:19:35.266Z,99635.32
2023-04-14T04:22:09.000Z,99630.95
2023-04-14T04:24:42.450Z,99635.56
2023-04-14T04:27:27.058Z,99635.65
2023-04-14T04:30:01.336Z,99644.59
2023-04-14T04:32:36.784Z,99646.06
2023-04-14T04:35:11.595Z,99642.55
2023-04-14T04:37:46.239Z,99644.00
2023-04-14T04:40:16.713Z,99647.38
2023-04-14T04:42:48.664Z,99651.83
2023-04-14T04:45:44.608Z,99655.63
2023-04-14T04:48:16.965Z,99656.02
2023-04-14T04:50:49.166Z,99656.63
2023-04-14T04:53:21.187Z,99651.20
2023-04-14T04:55:52.968Z,99653.08
2023-04-14T04:58:25.266Z,99652.63
2023-04-14T05:00:57.035Z,99652.45
2023-04-14T05:03:28.999Z,99656.92
2023-04-14T05:06:02.676Z,99651.39
2023-04-14T05:08:34.800Z,99649.45
2023-04-14T05:11:07.506Z,99649.81
2023-04-14T05:13:38.059Z,99650.13
2023-04-14T05:16:13.711Z,99645.77
2023-04-14T05:18:45.856Z,99644.49
2023-04-14T05:21:17.801Z,99642.32
2023-04-14T05:23:50.287Z,99639.43
2023-04-14T05:28:58.286Z,99636.45
2023-04-14T05:31:30.443Z,99635.36
2023-04-14T05:34:02.793Z,99629.87
2023-04-14T05:36:34.910Z,99629.50
2023-04-14T05:39:06.625Z,99628.63
2023-04-14T05:41:38.835Z,99629.48
2023-04-14T05:44:11.204Z,99632.31
2023-04-14T05:46:42.955Z,99629.40
2023-04-14T05:49:14.747Z,99634.26
2023-04-14T05:51:46.523Z,99633.92
2023-04-14T05:54:18.296Z,99629.78
2023-04-14T05:56:50.135Z,99627.88
2023-04-14T05:59:22.034Z,99631.44
2023-04-14T06:01:53.963Z,99621.45
2023-04-14T06:04:26.060Z,99618.42
2023-04-14T06:06:58.949Z,99614.46
2023-04-14T06:09:31.643Z,99610.08
2023-04-14T06:12:03.384Z,99601.92
2023-04-14T06:14:36.600Z,99600.38
2023-04-14T06:17:08.388Z,99600.64
2023-04-14T06:19:40.446Z,99597.98
2023-04-14T06:22:16.707Z,99597.34
2023-04-14T06:24:48.495Z,99597.98
2023-04-14T06:27:20.333Z,99597.52
2023-04-14T06:29:52.848Z,99599.66
2023-04-14T06:32:24.621Z,99601.83
2023-04-14T06:34:57.317Z,99602.39
2023-04-14T06:37:29.046Z,99604.11
2023-04-14T06:40:00.909Z,99605.75
2023-04-14T06:42:32.703Z,99607.23
2023-04-14T06:45:05.190Z,99605.61
2023-04-14T06:47:37.219Z,99606.42
2023-04-14T06:50:10.506Z,99607.23
2023-04-14T06:52:42.290Z,99603.08
2023-04-14T06:55:14.524Z,99601.38
2023-04-14T06:57:46.333Z,99602.31
2023-04-14T07:00:19.491Z,99600.38
2023-04-14T07:02:53.794Z,99593.33
2023-04-14T07:05:26.360Z,99590.80
2023-04-14T07:07:58.231Z,99591.46
2023-04-14T07:10:30.246Z,99598.23
2023-04-14T07:13:02.205Z,99589.71
2023-04-14T07:15:34.224Z,99583.50
2023-04-14T07:18:06.542Z,99575.67
2023-04-14T07:20:38.392Z,99571.59
2023-04-14T07:23:10.451Z,99570.40
2023-04-14T07:25:42.607Z,99571.21
2023-04-14T07:28:14.556Z,99568.61
2023-04-14T07:30:46.456Z,99567.80
2023-04-14T07:33:19.944Z,99568.38
2023-04-14T07:36:02.001Z,99560.38
2023-04-14T07:38:35.713Z,99558.96
2023-04-14T07:41:08.369Z,99563.70
2023-04-14T07:43:42.405Z,99565.09
2023-04-14T07:46:14.312Z,99558.45
2023-04-14T07:48:46.634Z,99563.63
2023-04-14T07:51:18.747Z,99561.68
2023-04-14T07:53:52.928Z,99556.80
2023-04-14T07:56:24.837Z,99555.04
2023-04-14T07:58:56.618Z,99548.60
2023-04-14T08:01:28.519Z,99552.83
2023-04-14T08:04:00.680Z,99552.13
2023-04-14T08:06:32.872Z,99549.33
2023-04-14T08:09:04.792Z,99553.49
2023-04-14T08:11:36.764Z,99547.96
2023-04-14T08:14:08.617Z,99549.41
2023-04-14T08:16:40.451Z,99546.92
2023-04-14T08:19:12.820Z,99546.36
2023-04-14T08:21:44.968Z,99539.23
2023-04-14T08:24:16.752Z,99538.73
2023-04-14T08:26:48.604Z,99534.57
2023-04-14T08:29:21.430Z,99532.94
2023-04-14T08:31:53.752Z,99537.39
2023-04-14T08:34:28.585Z,99542.20
2023-04-14T08:37:01.656Z,99538.48
2023-04-14T08:39:33.641Z,99539.81
2023-04-14T08:42:06.389Z,99541.40
2023-04-14T08:44:38.255Z,99540.30
2023-04-14T08:47:10.339Z,99541.61
2023-04-14T08:49:46.859Z,99542.44
2023-04-14T08:52:23.180Z,99538.66
2023-04-14T08:54:58.032Z,99540.52
2023-04-14T08:57:32.374Z,99535.95
2023-04-14T09:00:05.012Z,99540.41
2023-04-14T09:02:36.598Z,99537.76
2023-04-14T09:05:10.032Z,99535.80
2023-04-14T09:07:42.752Z,99536.55
2023-04-14T09:10:13.361Z,99541.73
2023-04-14T09:12:49.372Z,99542.29
2023-04-14T09:15:21.655Z,99545.45
2023-04-14T09:17:54.533Z,99545.05
2023-04-14T09:20:37.874Z,99547.41
2023-04-14T09:23:12.390Z,99548.60
2023-04-14T09:25:44.831Z,99551.19
2023-04-14T09:28:17.143Z,99551.00
2023-04-14T09:30:49.116Z,99553.45
2023-04-14T09:33:24.564Z,99555.52
2023-04-14T09:35:56.998Z,99552.38
2023-04-14T09:38:39.154Z,99554.52
2023-04-14T09:41:16.544Z,99553.23
2023-04-14T09:43:48.431Z,99552.53
2023-04-14T09:46:20.525Z,99551.96
2023-04-14T09:48:57.090Z,99551.21
2023-04-14T09:51:32.960Z,99555.25
2023-04-14T09:54:06.751Z,99553.59
2023-04-14T09:56:38.933Z,99555.54
2023-04-14T09:59:11.382Z,99556.16
2023-04-14T10:01:48.071Z,99557.06
2023-04-14T10:04:26.635Z,99552.40
2023-04-14T10:07:01.850Z,99553.56
2023-04-14T10:09:39.134Z,99557.05
2023-04-14T10:12:15.644Z,99554.50
2023-04-14T10:14:48.236Z,99549.11
2023-04-14T10:17:20.640Z,99544.77
2023-04-14T10:19:51.551Z,99543.45
2023-04-14T10:22:23.705Z,99538.66
2023-04-14T10:24:56.219Z,99541.54
2023-04-14T10:27:30.241Z,99543.98
2023-04-14T10:30:02.827Z,99539.36
2023-04-14T10:32:38.038Z,99535.14
2023-04-14T10:35:13.286Z,99531.48
2023-04-14T10:37:53.560Z,99531.04
2023-04-14T10:40:27.121Z,99525.60
2023-04-14T10:42:59.243Z,99524.34
2023-04-14T10:45:31.287Z,99523.36
2023-04-14T10:48:03.691Z,99522.02
2023-04-14T10:50:49.019Z,99517.47
2023-04-14T10:53:27.507Z,99515.04
2023-04-14T10:56:05.983Z,99508.54
2023-04-14T10:58:38.920Z,99509.09
2023-04-14T11:01:32.375Z,99501.95
2023-04-14T11:04:19.915Z,99501.67
2023-04-14T11:06:54.476Z,99505.09
2023-04-14T11:09:37.127Z,99502.88
2023-04-14T11:12:26.061Z,99500.73
2023-04-14T11:15:04.902Z,99506.38
2023-04-14T11:17:40.496Z,99500.06
2023-04-14T11:20:18.910Z,99498.84
2023-04-14T11:22:52.524Z,99492.75
2023-04-14T11:25:25.189Z,99491.33
2023-04-14T11:27:57.535Z,99488.38
2023-04-14T11:30:29.970Z,99487.09
2023-04-14T11:33:02.091Z,99483.64
2023-04-14T11:35:34.293Z,99482.95
2023-04-14T11:38:10.422Z,99479.23
2023-04-14T11:40:42.214Z,99481.39
2023-04-14T11:43:14.868Z,99478.52
2023-04-14T11:45:47.757Z,99473.66
2023-04-14T11:48:21.610Z,99469.02
2023-04-14T11:50:53.715Z,99467.13
2023-04-14T11:53:26.568Z,99465.13
2023-04-14T11:55:59.437Z,99462.16
2023-04-14T11:58:32.026Z,99459.55
2023-04-14T12:01:03.952Z,99459.46
2023-04-14T12:03:39.261Z,99461.23
2023-04-14T12:06:11.469Z,99465.14
2023-04-14T12:08:50.383Z,99463.11
2023-04-14T12:11:22.731Z,99461.08
2023-04-14T12:13:56.543Z,99452.11
2023-04-14T12:16:28.958Z,99449.19
2023-04-14T12:19:02.010Z,99450.80
2023-04-14T12:21:34.286Z,99449.33
2023-04-14T12:24:06.382Z,99447.34
2023-04-14T12:26:39.365Z,99445.30
2023-04-14T12:29:13.624Z,99445.01
2023-04-14T12:31:46.634Z,99441.08
2023-04-14T12:34:28.017Z,99443.49
2023-04-14T12:36:59.972Z,99434.85
2023-04-14T12:39:31.882Z,99433.90
2023-04-14T12:42:04.387Z,99434.23
2023-04-14T12:44:36.533Z,99428.23
2023-04-14T12:47:08.655Z,99421.47
2023-04-14T12:49:40.874Z,99415.29
2023-04-14T12:52:31.756Z,99412.11
2023-04-14T12:55:04.819Z,99415.38
2023-04-14T12:57:37.335Z,99414.04
2023-04-14T13:00:11.700Z,99419.20
2023-04-14T13:02:45.530Z,99417.02
2023-04-14T13:05:19.818Z,99411.36
2023-04-14T13:07:51.632Z,99409.44
2023-04-14T13:10:23.544Z,99404.54
2023-04-14T13:12:55.411Z,99401.98
2023-04-14T13:16:12.345Z,99398.83
2023-04-14T13:18:19.614Z,99394.36
2023-04-14T13:20:56.908Z,99389.46
2023-04-14T13:23:29.358Z,99389.45
2023-04-14T13:26:01.529Z,99384.67
2023-04-14T13:28:33.326Z,99390.98
2023-04-14T13:31:06.954Z,99385.20
2023-04-14T13:33:38.879Z,99384.52
2023-04-14T13:36:11.264Z,99383.65
2023-04-14T13:38:43.238Z,99382.59
2023-04-14T13:41:16.025Z,99378.83
2023-04-14T13:43:48.346Z,99375.41
2023-04-14T13:46:20.398Z,99369.64
2023-04-14T13:48:52.443Z,99374.27
2023-04-14T13:51:25.480Z,99371.26
2023-04-14T13:53:57.677Z,99373.06
2023-04-14T13:56:29.699Z,99372.36
2023-04-14T13:59:01.981Z,99375.47
2023-04-14T14:01:34.296Z,99378.67
2023-04-14T14:04:06.412Z,99379.05
2023-04-14T14:06:38.291Z,99376.42
2023-04-14T14:09:10.463Z,99372.66
2023-04-14T14:11:44.334Z,99370.64
2023-04-14T14:14:16.438Z,99371.85
2023-04-14T14:16:48.444Z,99369.72
2023-04-14T14:19:22.228Z,99366.59
2023-04-14T14:21:54.113Z,99370.14
2023-04-14T14:24:26.175Z,99370.88
2023-04-14T14:26:58.216Z,99370.17
2023-04-14T14:29:30.206Z,99370.84
2023-04-14T14:32:02.117Z,99369.71
2023-04-14T14:34:33.933Z,99373.48
2023-04-14T14:37:06.468Z,99369.41
2023-04-14T14:39:38.280Z,99373.57
2023-04-14T14:42:10.279Z,99376.47
2023-04-14T14:44:42.098Z,99374.01
2023-04-14T14:47:14.250Z,99376.07
2023-04-14T14:49:56.387Z,99371.24
2023-04-14T14:52:34.429Z,99369.39
2023-04-14T14:55:09.450Z,99365.14
2023-04-14T14:57:42.004Z,99370.64
2023-04-14T15:00:15.821Z,99372.23
2023-04-14T15:02:47.855Z,99372.17
2023-04-14T15:05:20.602Z,99367.39
2023-04-14T15:07:52.579Z,99364.70
2023-04-14T15:10:25.515Z,99367.77
2023-04-14T15:12:57.569Z,99367.73
2023-04-14T15:15:29.771Z,99372.51
2023-04-14T15:18:01.786Z,99366.69
2023-04-14T15:20:33.857Z,99367.87
2023-04-14T15:23:07.168Z,99372.85
2023-04-14T15:25:39.485Z,99374.27
2023-04-14T15:28:12.962Z,99371.15
2023-04-14T15:30:45.371Z,99375.61
2023-04-14T15:33:19.300Z,99371.42
2023-04-14T15:35:53.658Z,99371.19
2023-04-14T15:38:30.352Z,99371.38
2023-04-14T15:41:02.335Z,99367.00
2023-04-14T15:43:34.131Z,99366.81
2023-04-14T15:46:06.487Z,99368.84
2023-04-14T15:48:38.605Z,99369.77
2023-04-14T15:51:10.717Z,99371.54
2023-04-14T15:53:42.554Z,99371.38
2023-04-14T15:56:14.997Z,99376.70
2023-04-14T15:58:47.223Z,99377.27
2023-04-14T16:01:19.364Z,99377.52
2023-04-14T16:03:52.703Z,99382.39
2023-04-14T16:06:24.937Z,99384.77
2023-04-14T16:08:56.873Z,99385.48
2023-04-14T16:11:29.660Z,99386.83
2023-04-14T16:14:02.013Z,99389.42
2023-04-14T16:16:34.126Z,99392.72
2023-04-14T16:19:06.119Z,99388.39
2023-04-14T16:21:37.956Z,99391.65
2023-04-14T16:24:10.075Z,99395.65
2023-04-14T16:26:41.947Z,99401.14
2023-04-14T16:29:13.787Z,99399.30
2023-04-14T16:31:46.435Z,99394.90
2023-04-14T16:34:20.447Z,99392.15
2023-04-14T16:36:52.251Z,99395.52
2023-04-14T16:39:24.144Z,99399.27
2023-04-14T16:41:56.589Z,99397.42
2023-04-14T16:44:28.429Z,99406.96
2023-04-14T16:47:00.487Z,99407.20
2023-04-14T16:49:32.912Z,99410.66
2023-04-14T16:52:07.232Z,99410.64
2023-04-14T16:54:40.716Z,99411.16
2023-04-14T16:57:16.230Z,99410.70
2023-04-14T16:59:51.501Z,99412.78
2023-04-14T17:02:26.189Z,99399.21
2023-04-14T17:04:59.694Z,99411.98
2023-04-14T17:07:31.757Z,99410.13
2023-04-14T17:10:13.010Z,99407.02
2023-04-14T17:12:46.740Z,99410.48
2023-04-14T17:15:19.261Z,99410.46
2023-04-14T17:17:51.090Z,99409.70
2023-04-14T17:20:23.074Z,99413.77
2023-04-14T17:22:55.713Z,99413.29
2023-04-14T17:25:28.660Z,99415.91
2023-04-14T17:28:00.392Z,99415.85
2023-04-14T17:30:33.818Z,99414.19
2023-04-14T17:33:07.582Z,99418.23
2023-04-14T17:35:40.485Z,99420.73
2023-04-14T17:38:14.538Z,99425.83
2023-04-14T17:40:47.871Z,99426.30
2023-04-14T17:43:20.358Z,99431.80
2023-04-14T17:45:52.459Z,99433.95
2023-04-14T17:48:24.602Z,99432.31
2023-04-14T17:50:57.196Z,99437.61
2023-04-14T17:53:32.283Z,99441.98
2023-04-14T17:56:04.469Z,99437.53
2023-04-14T17:58:36.812Z,99439.57
2023-04-14T18:01:09.625Z,99441.05
2023-04-14T18:03:42.091Z,99437.64
2023-04-14T18:06:15.422Z,99438.21
2023-04-14T18:08:47.352Z,99443.02
2023-04-14T18:11:20.525Z,99437.73
2023-04-14T18:13:52.342Z,99436.35
2023-04-14T18:16:24.570Z,99434.48
2023-04-14T18:18:57.700Z,99434.77
2023-04-14T18:21:29.844Z,99430.34
2023-04-14T18:26:36.762Z,99431.98
2023-04-14T18:29:08.760Z,99433.40
2023-04-14T18:31:40.665Z,99435.55
2023-04-14T18:34:14.047Z,99437.29
2023-04-14T18:36:46.282Z,99439.20
2023-04-14T18:39:19.223Z,99438.08
2023-04-14T18:41:51.161Z,99438.14
2023-04-14T18:44:23.219Z,99437.89
2023-04-14T18:46:56.243Z,99434.61
2023-04-14T18:49:28.368Z,99428.95
2023-04-14T18:52:00.405Z,99434.88
2023-04-14T18:54:33.705Z,99430.75
2023-04-14T18:57:05.489Z,99433.98
2023-04-14T18:59:37.865Z,99437.83
2023-04-14T19:02:13.136Z,99431.35
2023-04-14T19:04:45.411Z,99435.88
2023-04-14T19:07:18.495Z,99439.42
2023-04-14T19:09:51.039Z,99436.65
2023-04-14T19:12:28.539Z,99441.86
2023-04-14T19:15:02.628Z,99442.20
2023-04-14T19:17:36.882Z,99439.51
2023-04-14T19:20:10.687Z,99440.39
2023-04-14T19:22:42.668Z,99445.36
2023-04-14T19:25:15.522Z,99445.59
2023-04-14T19:27:47.782Z,99445.66
2023-04-14T19:30:19.844Z,99444.48
2023-04-14T19:32:53.445Z,99446.27
2023-04-14T19:35:25.592Z,99446.48
2023-04-14T19:37:57.984Z,99445.62
2023-04-14T19:40:31.929Z,99444.23
2023-04-14T19:43:04.227Z,99444.23
2023-04-14T19:45:35.196Z,99449.94
2023-04-14T19:48:22.063Z,99445.17
2023-04-14T19:50:56.495Z,99449.95
2023-04-14T19:53:29.418Z,99450.59
2023-04-14T19:56:02.120Z,99453.53
2023-04-14T19:58:34.509Z,99454.86
2023-04-14T20:01:06.698Z,99453.44
2023-04-14T20:03:38.685Z,99451.84
2023-04-14T20:06:30.670Z,99447.21
2023-04-14T20:09:04.118Z,99446.98
2023-04-14T20:11:37.178Z,99446.56
2023-04-14T20:14:07.608Z,99446.41
2023-04-14T20:16:39.720Z,99448.17
2023-04-14T20:19:12.810Z,99451.59
2023-04-14T20:21:44.878Z,99451.98
2023-04-14T20:24:17.657Z,99455.54
2023-04-14T20:26:50.104Z,99450.79
2023-04-14T20:29:23.451Z,99450.64
2023-04-14T20:31:56.323Z,99452.52
2023-04-14T20:34:29.048Z,99450.55
2023-04-14T20:37:00.972Z,99453.52
2023-04-14T20:39:33.360Z,99456.56
2023-04-14T20:42:05.648Z,99448.92
2023-04-14T20:44:37.698Z,99451.32
2023-04-14T20:47:09.720Z,99452.71
2023-04-14T20:49:41.553Z,99457.10
2023-04-14T20:52:13.412Z,99457.01
2023-04-14T20:54:45.400Z,99453.16
2023-04-14T20:57:18.133Z,99458.61
2023-04-14T20:59:51.059Z,99455.31
2023-04-14T21:02:23.560Z,99457.05
2023-04-14T21:04:56.004Z,99461.64
2023-04-14T21:07:28.271Z,99461.97
2023-04-14T21:10:00.244Z,99466.70
2023-04-14T21:12:35.465Z,99466.73
2023-04-14T21:15:47.323Z,99476.73
2023-04-14T21:18:02.492Z,99471.85
2023-04-14T21:20:34.555Z,99475.79
2023-04-14T21:23:09.534Z,99477.41
2023-04-14T21:25:42.274Z,99476.75
2023-04-14T21:28:12.804Z,99477.30
2023-04-14T21:30:44.715Z,99477.55
2023-04-14T21:33:16.772Z,99475.18
2023-04-14T21:35:49.610Z,99473.20
2023-04-14T21:38:23.905Z,99471.34
2023-04-14T21:40:56.166Z,99470.16
2023-04-14T21:43:28.231Z,99467.69
2023-04-14T21:46:00.523Z,99469.02
2023-04-14T21:48:32.729Z,99468.22
2023-04-14T21:51:04.909Z,99466.09
2023-04-14T21:53:37.774Z,99469.64
2023-04-14T21:56:12.817Z,99470.85
2023-04-14T21:58:45.818Z,99473.60
2023-04-14T22:01:18.085Z,99475.70
2023-04-14T22:03:50.438Z,99473.13
2023-04-14T22:06:22.395Z,99473.89
2023-04-14T22:08:54.349Z,99473.38
2023-04-14T22:11:27.056Z,99472.03
2023-04-14T22:13:59.634Z,99470.23
2023-04-14T22:16:31.598Z,99471.16
2023-04-14T22:19:04.599Z,99474.11
2023-04-14T22:21:36.755Z,99471.77
2023-04-14T22:24:10.087Z,99470.05
2023-04-14T22:26:41.972Z,99471.95
2023-04-14T22:29:13.760Z,99474.33
2023-04-14T22:31:45.910Z,99480.83
2023-04-14T22:34:17.999Z,99484.39
2023-04-14T22:36:50.067Z,99486.44
2023-04-14T22:39:22.107Z,99487.78
2023-04-14T22:41:54.462Z,99488.39
2023-04-14T22:44:26.414Z,99487.77
2023-04-14T22:46:58.602Z,99484.85
2023-04-14T22:49:31.317Z,99488.95
2023-04-14T22:52:01.692Z,99486.13
2023-04-14T22:54:33.757Z,99486.54
2023-04-14T22:57:05.637Z,99491.94
2023-04-14T22:59:37.741Z,99479.75
2023-04-14T23:02:09.538Z,99485.08
2023-04-14T23:04:42.185Z,99485.70
2023-04-14T23:07:13.534Z,99485.55
2023-04-14T23:09:45.755Z,99488.23
2023-04-14T23:12:17.509Z,99483.11
2023-04-14T23:14:49.338Z,99486.98
2023-04-14T23:17:21.338Z,99487.06
2023-04-14T23:19:54.033Z,99485.98
2023-04-14T23:22:24.586Z,99488.10
2023-04-14T23:24:56.662Z,99478.64
2023-04-14T23:27:29.017Z,99482.41
2023-04-14T23:30:00.825Z,99481.64
2023-04-14T23:32:32.747Z,99486.66
2023-04-14T23:35:04.914Z,99488.02
2023-04-14T23:37:37.222Z,99485.27
2023-04-14T23:40:11.286Z,99482.14
2023-04-14T23:42:43.037Z,99480.08
2023-04-14T23:45:14.916Z,99476.46
2023-04-14T23:47:47.309Z,99476.58
2023-04-14T23:50:19.418Z,99473.05
2023-04-14T23:52:53.305Z,99479.77
2023-04-14T23:55:25.487Z,99478.36
